Time,TemperatureF,DewpointF,PressureIn,WindDirection,WindDirectionDegrees,WindSpeedMPH,WindSpeedGustMPH,Humidity,HourlyPrecipIn,Conditions,Clouds,dailyrainin,SoftwareType,DateUTC
2013-01-26 00:00:00,17.8,9.7,30.28,NW,309,6.0,13.0,70,0.00,,---,0.00,VWS V14.01,2013-01-26 06:00:00,
2013-01-26 00:03:00,19.7,9.9,30.27,NW,315,8.0,12.0,65,0.00,,---,0.00,VWS V14.01,2013-01-26 06:03:00,
2013-01-26 00:08:00,19.3,9.8,30.26,NW,317,8.0,12.0,66,0.00,,---,0.00,VWS V14.01,2013-01-26 06:08:00,
2013-01-26 00:13:00,19.1,9.6,30.27,WNW,301,7.0,12.0,66,0.00,,---,0.00,VWS V14.01,2013-01-26 06:13:00,
2013-01-26 00:18:00,18.9,9.8,30.27,NW,313,10.0,12.0,67,0.00,,---,0.00,VWS V14.01,2013-01-26 06:18:00,
2013-01-26 00:24:00,18.7,9.6,30.27,NW,309,8.0,12.0,67,0.00,,---,0.00,VWS V14.01,2013-01-26 06:24:00,
2013-01-26 00:29:00,18.6,9.8,30.27,NW,313,12.0,13.0,68,0.00,,---,0.00,VWS V14.01,2013-01-26 06:29:00,
2013-01-26 00:30:00,16.8,9.4,30.28,WNW,301,8.0,9.0,72,0.00,,---,0.00,VWS V14.01,2013-01-26 06:30:00,
2013-01-26 00:34:00,18.6,9.5,30.28,NW,308,10.0,13.0,67,0.00,,---,0.00,VWS V14.01,2013-01-26 06:34:00,
2013-01-26 00:39:00,18.5,9.7,30.28,NW,311,9.0,13.0,68,0.00,,---,0.00,VWS V14.01,2013-01-26 06:39:00,
2013-01-26 00:44:00,18.4,9.6,30.28,NW,310,10.0,13.0,68,0.00,,---,0.00,VWS V14.01,2013-01-26 06:44:00,
2013-01-26 00:49:00,18.2,9.4,30.28,WNW,300,9.0,13.0,68,0.00,,---,0.00,VWS V14.01,2013-01-26 06:49:00,
2013-01-26 00:54:00,18.1,9.3,30.28,WNW,298,9.0,13.0,68,0.00,,---,0.00,VWS V14.01,2013-01-26 06:54:00,
2013-01-26 00:59:00,17.7,9.6,30.28,WNW,302,6.0,8.0,70,0.00,,---,0.00,VWS V14.01,2013-01-26 06:59:00,
2013-01-26 01:00:00,15.8,9.0,30.29,NW,308,7.0,9.0,74,0.00,,---,0.00,VWS V14.01,2013-01-26 07:00:00,
2013-01-26 01:04:00,17.6,9.5,30.29,WNW,303,8.0,9.0,70,0.00,,---,0.00,VWS V14.01,2013-01-26 07:04:00,
2013-01-26 01:09:00,17.4,9.3,30.28,NW,304,6.0,9.0,70,0.00,,---,0.00,VWS V14.01,2013-01-26 07:09:00,
2013-01-26 01:14:00,17.2,9.1,30.28,NW,314,8.0,9.0,70,0.00,,---,0.00,VWS V14.01,2013-01-26 07:14:00,
2013-01-26 01:19:00,17.1,9.3,30.28,NW,309,7.0,9.0,71,0.00,,---,0.00,VWS V14.01,2013-01-26 07:19:00,
2013-01-26 01:24:00,17.0,9.2,30.28,NW,307,8.0,9.0,71,0.00,,---,0.00,VWS V14.01,2013-01-26 07:24:00,
2013-01-26 01:30:00,16.8,9.4,30.28,WNW,297,8.0,9.0,72,0.00,,---,0.00,VWS V14.01,2013-01-26 07:30:00,
2013-01-26 01:35:00,16.5,9.1,30.28,WNW,301,6.0,9.0,72,0.00,,---,0.00,VWS V14.01,2013-01-26 07:35:00,
2013-01-26 01:40:00,16.2,9.1,30.28,WNW,296,6.0,9.0,73,0.00,,---,0.00,VWS V14.01,2013-01-26 07:40:00,
2013-01-26 01:45:00,16.1,9.0,30.29,WNW,302,6.0,9.0,73,0.00,,---,0.00,VWS V14.01,2013-01-26 07:45:00,
2013-01-26 01:50:00,16.0,9.2,30.29,NW,305,6.0,9.0,74,0.00,,---,0.00,VWS V14.01,2013-01-26 07:50:00,
2013-01-26 01:55:00,15.9,9.1,30.29,NW,307,6.0,9.0,74,0.00,,---,0.00,VWS V14.01,2013-01-26 07:55:00,
2013-01-26 02:00:00,15.7,8.9,30.29,NW,311,7.0,8.0,74,0.00,,---,0.00,VWS V14.01,2013-01-26 08:00:00,
2013-01-26 02:05:00,15.5,9.0,30.29,NW,309,9.0,9.0,75,0.00,,---,0.00,VWS V14.01,2013-01-26 08:05:00,
2013-01-26 02:11:00,15.6,9.1,30.29,NW,312,9.0,10.0,75,0.00,,---,0.00,VWS V14.01,2013-01-26 08:11:00,
2013-01-26 02:16:00,15.7,9.2,30.29,NW,324,8.0,10.0,75,0.00,,---,0.00,VWS V14.01,2013-01-26 08:16:00,
2013-01-26 02:21:00,15.5,9.0,30.29,NNW,329,8.0,10.0,75,0.00,,---,0.00,VWS V14.01,2013-01-26 08:21:00,
2013-01-26 02:26:00,15.2,8.7,30.29,NW,315,6.0,10.0,75,0.00,,---,0.00,VWS V14.01,2013-01-26 08:26:00,
2013-01-26 02:30:00,14.1,8.8,30.30,NNW,329,7.0,9.0,79,0.00,,---,0.00,VWS V14.01,2013-01-26 08:30:00,
2013-01-26 02:31:00,15.0,8.8,30.30,NW,310,6.0,8.0,76,0.00,,---,0.00,VWS V14.01,2013-01-26 08:31:00,
2013-01-26 02:36:00,14.9,8.7,30.29,NW,312,6.0,8.0,76,0.00,,---,0.00,VWS V14.01,2013-01-26 08:36:00,
2013-01-26 02:41:00,15.0,8.8,30.30,NW,306,7.0,8.0,76,0.00,,---,0.00,VWS V14.01,2013-01-26 08:41:00,
2013-01-26 02:46:00,15.1,8.9,30.30,WNW,303,7.0,8.0,76,0.00,,---,0.00,VWS V14.01,2013-01-26 08:46:00,
2013-01-26 02:52:00,14.9,8.7,30.30,NW,304,6.0,8.0,76,0.00,,---,0.00,VWS V14.01,2013-01-26 08:52:00,
2013-01-26 02:57:00,14.7,8.5,30.30,NW,308,7.0,8.0,76,0.00,,---,0.00,VWS V14.01,2013-01-26 08:57:00,
2013-01-26 03:00:00,14.3,8.4,30.33,West,279,6.0,9.0,77,0.00,,---,0.00,VWS V14.01,2013-01-26 09:00:00,
2013-01-26 03:02:00,14.6,8.7,30.31,NW,306,8.0,8.0,77,0.00,,---,0.00,VWS V14.01,2013-01-26 09:02:00,
2013-01-26 03:07:00,14.5,8.6,30.31,NW,313,8.0,8.0,77,0.00,,---,0.00,VWS V14.01,2013-01-26 09:07:00,
2013-01-26 03:12:00,14.4,8.5,30.31,NW,316,7.0,8.0,77,0.00,,---,0.00,VWS V14.01,2013-01-26 09:12:00,
2013-01-26 03:17:00,14.2,8.6,30.31,NW,320,8.0,8.0,78,0.00,,---,0.00,VWS V14.01,2013-01-26 09:17:00,
2013-01-26 03:22:00,14.0,8.4,30.31,NW,320,8.0,9.0,78,0.00,,---,0.00,VWS V14.01,2013-01-26 09:22:00,
2013-01-26 03:27:00,14.1,8.8,30.30,NW,323,8.0,9.0,79,0.00,,---,0.00,VWS V14.01,2013-01-26 09:27:00,
2013-01-26 03:30:00,13.4,8.1,30.34,West,275,5.0,7.0,79,0.00,,---,0.00,VWS V14.01,2013-01-26 09:30:00,
2013-01-26 03:33:00,14.1,8.8,30.31,NW,315,7.0,9.0,79,0.00,,---,0.00,VWS V14.01,2013-01-26 09:33:00,
2013-01-26 03:38:00,14.1,8.5,30.31,NW,313,5.0,9.0,78,0.00,,---,0.00,VWS V14.01,2013-01-26 09:38:00,
2013-01-26 03:43:00,14.2,8.6,30.32,WNW,288,7.0,9.0,78,0.00,,---,0.00,VWS V14.01,2013-01-26 09:43:00,
2013-01-26 03:48:00,14.1,8.5,30.32,West,268,6.0,9.0,78,0.00,,---,0.00,VWS V14.01,2013-01-26 09:48:00,
2013-01-26 03:53:00,14.2,8.6,30.32,West,270,6.0,9.0,78,0.00,,---,0.00,VWS V14.01,2013-01-26 09:53:00,
2013-01-26 03:58:00,14.3,8.4,30.33,West,279,7.0,9.0,77,0.00,,---,0.00,VWS V14.01,2013-01-26 09:58:00,
2013-01-26 04:00:00,12.8,7.5,30.35,WNW,291,5.0,7.0,79,0.00,,---,0.00,VWS V14.01,2013-01-26 10:00:00,
2013-01-26 04:03:00,14.2,8.3,30.33,WNW,299,4.0,7.0,77,0.00,,---,0.00,VWS V14.01,2013-01-26 10:03:00,
2013-01-26 04:08:00,13.9,8.3,30.33,WNW,290,6.0,7.0,78,0.00,,---,0.00,VWS V14.01,2013-01-26 10:08:00,
2013-01-26 04:13:00,13.6,8.0,30.33,WNW,282,4.0,7.0,78,0.00,,---,0.00,VWS V14.01,2013-01-26 10:13:00,
2013-01-26 04:18:00,13.4,8.1,30.34,West,277,5.0,7.0,79,0.00,,---,0.00,VWS V14.01,2013-01-26 10:18:00,
2013-01-26 04:23:00,13.5,8.2,30.34,West,280,7.0,7.0,79,0.00,,---,0.00,VWS V14.01,2013-01-26 10:23:00,
2013-01-26 04:29:00,13.4,8.1,30.34,West,281,5.0,5.0,79,0.00,,---,0.00,VWS V14.01,2013-01-26 10:29:00,
2013-01-26 04:30:00,11.3,6.6,30.36,West,278,4.0,6.0,81,0.00,,---,0.00,VWS V14.01,2013-01-26 10:30:00,
2013-01-26 04:34:00,13.2,7.9,30.34,West,276,6.0,7.0,79,0.00,,---,0.00,VWS V14.01,2013-01-26 10:34:00,
2013-01-26 04:39:00,13.1,7.8,30.35,West,271,7.0,7.0,79,0.00,,---,0.00,VWS V14.01,2013-01-26 10:39:00,
2013-01-26 04:44:00,13.1,7.8,30.35,West,265,6.0,7.0,79,0.00,,---,0.00,VWS V14.01,2013-01-26 10:44:00,
2013-01-26 04:49:00,13.1,7.8,30.35,West,274,4.0,7.0,79,0.00,,---,0.00,VWS V14.01,2013-01-26 10:49:00,
2013-01-26 04:54:00,13.0,7.7,30.35,West,281,5.0,7.0,79,0.00,,---,0.00,VWS V14.01,2013-01-26 10:54:00,
2013-01-26 04:59:00,12.8,7.5,30.35,WNW,291,4.0,5.0,79,0.00,,---,0.00,VWS V14.01,2013-01-26 10:59:00,
2013-01-26 05:00:00,10.9,6.2,30.37,NW,308,3.0,6.0,81,0.00,,---,0.00,VWS V14.01,2013-01-26 11:00:00,
2013-01-26 05:04:00,12.5,7.2,30.35,WNW,298,4.0,6.0,79,0.00,,---,0.00,VWS V14.01,2013-01-26 11:04:00,
2013-01-26 05:09:00,12.2,6.9,30.36,WNW,298,4.0,6.0,79,0.00,,---,0.00,VWS V14.01,2013-01-26 11:09:00,
2013-01-26 05:14:00,11.9,6.7,30.36,NW,304,4.0,6.0,79,0.00,,---,0.00,VWS V14.01,2013-01-26 11:14:00,
2013-01-26 05:19:00,11.6,6.6,30.36,WNW,300,4.0,6.0,80,0.00,,---,0.00,VWS V14.01,2013-01-26 11:19:00,
2013-01-26 05:24:00,11.5,6.8,30.36,WNW,285,5.0,6.0,81,0.00,,---,0.00,VWS V14.01,2013-01-26 11:24:00,
2013-01-26 05:29:00,11.3,6.6,30.36,West,278,3.0,4.0,81,0.00,,---,0.00,VWS V14.01,2013-01-26 11:29:00,
2013-01-26 05:30:00,9.9,5.5,30.38,NW,309,1.0,4.0,82,0.00,,---,0.00,VWS V14.01,2013-01-26 11:30:00,
2013-01-26 05:34:00,11.0,6.3,30.37,West,275,3.0,4.0,81,0.00,,---,0.00,VWS V14.01,2013-01-26 11:34:00,
2013-01-26 05:39:00,11.0,6.6,30.37,West,279,4.0,4.0,82,0.00,,---,0.00,VWS V14.01,2013-01-26 11:39:00,
2013-01-26 05:44:00,11.2,6.8,30.37,WNW,291,5.0,5.0,82,0.00,,---,0.00,VWS V14.01,2013-01-26 11:44:00,
2013-01-26 05:49:00,11.2,6.5,30.37,WNW,293,4.0,5.0,81,0.00,,---,0.00,VWS V14.01,2013-01-26 11:49:00,
2013-01-26 05:54:00,11.0,6.3,30.37,NW,307,6.0,6.0,81,0.00,,---,0.00,VWS V14.01,2013-01-26 11:54:00,
2013-01-26 05:59:00,10.9,6.2,30.37,NW,308,3.0,3.0,81,0.00,,---,0.00,VWS V14.01,2013-01-26 11:59:00,
2013-01-26 06:00:00,10.4,5.7,30.39,NW,313,4.0,5.0,81,0.00,,---,0.00,VWS V14.01,2013-01-26 12:00:00,
2013-01-26 06:04:00,10.7,6.0,30.37,NW,312,4.0,4.0,81,0.00,,---,0.00,VWS V14.01,2013-01-26 12:04:00,
2013-01-26 06:10:00,10.4,5.7,30.37,NW,323,3.0,4.0,81,0.00,,---,0.00,VWS V14.01,2013-01-26 12:10:00,
2013-01-26 06:15:00,10.1,5.4,30.37,NNW,328,2.0,4.0,81,0.00,,---,0.00,VWS V14.01,2013-01-26 12:15:00,
2013-01-26 06:20:00,9.9,5.2,30.38,NW,317,4.0,4.0,81,0.00,,---,0.00,VWS V14.01,2013-01-26 12:20:00,
2013-01-26 06:25:00,9.9,5.5,30.38,NW,310,3.0,4.0,82,0.00,,---,0.00,VWS V14.01,2013-01-26 12:25:00,
2013-01-26 06:30:00,10.0,5.9,30.38,NW,309,1.0,2.0,83,0.00,,---,0.00,VWS V14.01,2013-01-26 12:30:00,
2013-01-26 06:35:00,10.0,5.9,30.38,NW,309,1.0,2.0,83,0.00,,---,0.00,VWS V14.01,2013-01-26 12:35:00,
2013-01-26 06:40:00,10.5,6.4,30.38,NW,309,2.0,3.0,83,0.00,,---,0.00,VWS V14.01,2013-01-26 12:40:00,
2013-01-26 06:45:00,10.7,6.3,30.38,NW,311,4.0,5.0,82,0.00,,---,0.00,VWS V14.01,2013-01-26 12:45:00,
2013-01-26 06:50:00,10.7,6.3,30.38,NW,313,4.0,5.0,82,0.00,,---,0.00,VWS V14.01,2013-01-26 12:50:00,
2013-01-26 06:55:00,10.5,5.8,30.39,NW,313,4.0,5.0,81,0.00,,---,0.00,VWS V14.01,2013-01-26 12:55:00,
2013-01-26 07:00:00,10.4,5.7,30.39,NW,316,5.0,5.0,81,0.00,,---,0.00,VWS V14.01,2013-01-26 13:00:00,
2013-01-26 07:05:00,10.2,5.8,30.39,NW,323,4.0,5.0,82,0.00,,---,0.00,VWS V14.01,2013-01-26 13:05:00,
2013-01-26 07:10:00,10.1,5.7,30.39,NW,325,3.0,5.0,82,0.00,,---,0.00,VWS V14.01,2013-01-26 13:10:00,
2013-01-26 07:15:00,10.0,5.6,30.39,NNW,329,3.0,5.0,82,0.00,,---,0.00,VWS V14.01,2013-01-26 13:15:00,
2013-01-26 07:20:00,9.9,5.5,30.39,NNW,333,4.0,5.0,82,0.00,,---,0.00,VWS V14.01,2013-01-26 13:20:00,
2013-01-26 07:26:00,10.0,5.9,30.39,NNW,342,4.0,5.0,83,0.00,,---,0.00,VWS V14.01,2013-01-26 13:26:00,
2013-01-26 07:30:00,15.8,9.6,30.41,North,360,7.0,9.0,76,0.00,,---,0.00,VWS V14.01,2013-01-26 13:30:00,
2013-01-26 07:31:00,10.1,6.0,30.39,NNW,347,4.0,4.0,83,0.00,,---,0.00,VWS V14.01,2013-01-26 13:31:00,
2013-01-26 07:36:00,10.1,6.0,30.39,NNW,347,3.0,4.0,83,0.00,,---,0.00,VWS V14.01,2013-01-26 13:36:00,
2013-01-26 07:41:00,10.9,7.0,30.39,North,349,3.0,4.0,84,0.00,,---,0.00,VWS V14.01,2013-01-26 13:41:00,
2013-01-26 07:46:00,11.5,7.6,30.39,NNW,347,3.0,4.0,84,0.00,,---,0.00,VWS V14.01,2013-01-26 13:46:00,
2013-01-26 07:51:00,12.1,7.9,30.40,NNW,338,4.0,5.0,83,0.00,,---,0.00,VWS V14.01,2013-01-26 13:51:00,
2013-01-26 07:56:00,12.8,8.4,30.40,NNW,347,6.0,6.0,82,0.00,,---,0.00,VWS V14.01,2013-01-26 13:56:00,
2013-01-26 08:00:00,16.6,10.1,30.42,NNE,26,7.0,9.0,75,0.00,,---,0.00,VWS V14.01,2013-01-26 14:00:00,
2013-01-26 08:01:00,13.5,8.8,30.40,NNW,333,6.0,6.0,81,0.00,,---,0.00,VWS V14.01,2013-01-26 14:01:00,
2013-01-26 08:06:00,14.1,9.1,30.40,NNW,348,5.0,7.0,80,0.00,,---,0.00,VWS V14.01,2013-01-26 14:06:00,
2013-01-26 08:11:00,14.7,9.1,30.40,NNW,337,7.0,7.0,78,0.00,,---,0.00,VWS V14.01,2013-01-26 14:11:00,
2013-01-26 08:16:00,15.0,9.4,30.40,NNW,346,5.0,7.0,78,0.00,,---,0.00,VWS V14.01,2013-01-26 14:16:00,
2013-01-26 08:21:00,15.5,9.6,30.41,NNE,22,8.0,9.0,77,0.00,,---,0.00,VWS V14.01,2013-01-26 14:21:00,
2013-01-26 08:26:00,15.7,9.5,30.41,NNE,26,5.0,9.0,76,0.00,,---,0.00,VWS V14.01,2013-01-26 14:26:00,
2013-01-26 08:30:00,17.9,10.4,30.43,NE,40,4.0,10.0,72,0.00,,---,0.00,VWS V14.01,2013-01-26 14:30:00,
2013-01-26 08:31:00,16.0,9.8,30.41,North,5,6.0,8.0,76,0.00,,---,0.00,VWS V14.01,2013-01-26 14:31:00,
2013-01-26 08:36:00,16.3,9.8,30.41,NNE,17,9.0,9.0,75,0.00,,---,0.00,VWS V14.01,2013-01-26 14:36:00,
2013-01-26 08:41:00,16.2,9.4,30.41,NNW,348,8.0,9.0,74,0.00,,---,0.00,VWS V14.01,2013-01-26 14:41:00,
2013-01-26 08:46:00,16.3,9.8,30.41,NNE,22,6.0,9.0,75,0.00,,---,0.00,VWS V14.01,2013-01-26 14:46:00,
2013-01-26 08:51:00,16.2,9.7,30.42,NNE,27,5.0,9.0,75,0.00,,---,0.00,VWS V14.01,2013-01-26 14:51:00,
2013-01-26 08:56:00,16.4,9.9,30.42,NE,41,8.0,9.0,75,0.00,,---,0.00,VWS V14.01,2013-01-26 14:56:00,
2013-01-26 09:00:00,19.7,11.2,30.44,ENE,63,1.0,9.0,69,0.00,,---,0.00,VWS V14.01,2013-01-26 15:00:00,
2013-01-26 09:01:00,16.6,10.1,30.42,NNE,24,6.0,8.0,75,0.00,,---,0.00,VWS V14.01,2013-01-26 15:01:00,
2013-01-26 09:06:00,16.9,10.4,30.42,NE,55,4.0,8.0,75,0.00,,---,0.00,VWS V14.01,2013-01-26 15:06:00,
2013-01-26 09:12:00,17.1,9.9,30.42,NNE,17,4.0,9.0,73,0.00,,---,0.00,VWS V14.01,2013-01-26 15:12:00,
2013-01-26 09:17:00,17.3,10.1,30.42,NE,48,6.0,10.0,73,0.00,,---,0.00,VWS V14.01,2013-01-26 15:17:00,
2013-01-26 09:22:00,17.6,10.4,30.42,NE,54,6.0,10.0,73,0.00,,---,0.00,VWS V14.01,2013-01-26 15:22:00,
2013-01-26 09:27:00,17.9,10.7,30.42,ENE,58,3.0,10.0,73,0.00,,---,0.00,VWS V14.01,2013-01-26 15:27:00,
2013-01-26 09:30:00,21.8,11.9,30.45,SE,144,0.0,4.0,65,0.00,,---,0.00,VWS V14.01,2013-01-26 15:30:00,
2013-01-26 09:32:00,18.2,10.4,30.42,ENE,76,7.0,7.0,71,0.00,,---,0.00,VWS V14.01,2013-01-26 15:32:00,
2013-01-26 09:37:00,18.5,10.4,30.42,ENE,70,4.0,9.0,70,0.00,,---,0.00,VWS V14.01,2013-01-26 15:37:00,
2013-01-26 09:42:00,18.8,10.6,30.43,East,91,3.0,9.0,70,0.00,,---,0.00,VWS V14.01,2013-01-26 15:42:00,
2013-01-26 09:47:00,19.0,10.8,30.43,ENE,65,3.0,9.0,70,0.00,,---,0.00,VWS V14.01,2013-01-26 15:47:00,
2013-01-26 09:52:00,19.2,11.0,30.43,ENE,63,2.0,9.0,70,0.00,,---,0.00,VWS V14.01,2013-01-26 15:52:00,
2013-01-26 09:58:00,19.6,11.1,30.44,ENE,63,4.0,9.0,69,0.00,,---,0.00,VWS V14.01,2013-01-26 15:58:00,
2013-01-26 10:00:00,23.4,11.9,30.44,ESE,123,0.0,4.0,61,0.00,,---,0.00,VWS V14.01,2013-01-26 16:00:00,
2013-01-26 10:03:00,19.9,11.1,30.44,ENE,65,0.0,2.0,68,0.00,,---,0.00,VWS V14.01,2013-01-26 16:03:00,
2013-01-26 10:08:00,20.5,11.6,30.44,ENE,57,1.0,4.0,68,0.00,,---,0.00,VWS V14.01,2013-01-26 16:08:00,
2013-01-26 10:13:00,20.8,11.6,30.44,SE,129,1.0,4.0,67,0.00,,---,0.00,VWS V14.01,2013-01-26 16:13:00,
2013-01-26 10:18:00,21.2,11.6,30.44,SE,134,3.0,4.0,66,0.00,,---,0.00,VWS V14.01,2013-01-26 16:18:00,
2013-01-26 10:23:00,21.6,11.7,30.45,SE,144,0.0,4.0,65,0.00,,---,0.00,VWS V14.01,2013-01-26 16:23:00,
2013-01-26 10:28:00,21.8,11.9,30.45,SE,144,0.0,4.0,65,0.00,,---,0.00,VWS V14.01,2013-01-26 16:28:00,
2013-01-26 10:30:00,24.8,12.5,30.45,NW,309,0.0,3.0,59,0.00,,---,0.00,VWS V14.01,2013-01-26 16:30:00,
2013-01-26 10:33:00,22.5,12.2,30.45,SE,143,0.0,0.0,64,0.00,,---,0.00,VWS V14.01,2013-01-26 16:33:00,
2013-01-26 10:38:00,23.2,12.1,30.44,ENE,71,0.0,2.0,62,0.00,,---,0.00,VWS V14.01,2013-01-26 16:38:00,
2013-01-26 10:43:00,23.6,12.1,30.44,WNW,296,0.0,2.0,61,0.00,,---,0.00,VWS V14.01,2013-01-26 16:43:00,
2013-01-26 10:48:00,23.0,11.9,30.44,WNW,285,0.0,2.0,62,0.00,,---,0.00,VWS V14.01,2013-01-26 16:48:00,
2013-01-26 10:53:00,23.1,11.7,30.45,ESE,121,0.0,4.0,61,0.00,,---,0.00,VWS V14.01,2013-01-26 16:53:00,
2013-01-26 10:58:00,23.4,11.9,30.44,ESE,123,0.0,4.0,61,0.00,,---,0.00,VWS V14.01,2013-01-26 16:58:00,
2013-01-26 11:00:00,26.2,12.2,30.43,WSW,248,3.0,5.0,55,0.00,,---,0.00,VWS V14.01,2013-01-26 17:00:00,
2013-01-26 11:03:00,23.8,12.3,30.44,WSW,242,0.0,2.0,61,0.00,,---,0.00,VWS V14.01,2013-01-26 17:03:00,
2013-01-26 11:08:00,23.9,12.1,30.45,WSW,253,0.0,2.0,60,0.00,,---,0.00,VWS V14.01,2013-01-26 17:08:00,
2013-01-26 11:13:00,23.6,11.4,30.45,WSW,252,0.0,3.0,59,0.00,,---,0.00,VWS V14.01,2013-01-26 17:13:00,
2013-01-26 11:18:00,23.9,12.4,30.45,West,266,1.0,3.0,61,0.00,,---,0.00,VWS V14.01,2013-01-26 17:18:00,
2013-01-26 11:23:00,24.4,12.1,30.45,West,266,0.0,3.0,59,0.00,,---,0.00,VWS V14.01,2013-01-26 17:23:00,
2013-01-26 11:28:00,24.8,12.5,30.45,NW,309,0.0,3.0,59,0.00,,---,0.00,VWS V14.01,2013-01-26 17:28:00,
2013-01-26 11:30:00,27.0,12.6,30.41,SSE,163,0.0,7.0,54,0.00,,---,0.00,VWS V14.01,2013-01-26 17:30:00,
2013-01-26 11:33:00,25.2,12.5,30.44,NW,313,1.0,3.0,58,0.00,,---,0.00,VWS V14.01,2013-01-26 17:33:00,
2013-01-26 11:38:00,25.1,12.0,30.44,NW,312,0.0,3.0,57,0.00,,---,0.00,VWS V14.01,2013-01-26 17:38:00,
2013-01-26 11:43:00,25.0,11.9,30.45,SSW,194,0.0,5.0,57,0.00,,---,0.00,VWS V14.01,2013-01-26 17:43:00,
2013-01-26 11:48:00,25.3,12.2,30.44,SSE,163,0.0,5.0,57,0.00,,---,0.00,VWS V14.01,2013-01-26 17:48:00,
2013-01-26 11:54:00,25.6,12.5,30.43,SSE,168,0.0,5.0,57,0.00,,---,0.00,VWS V14.01,2013-01-26 17:54:00,
2013-01-26 11:59:00,26.3,12.3,30.42,WSW,249,0.0,3.0,55,0.00,,---,0.00,VWS V14.01,2013-01-26 17:59:00,
2013-01-26 12:00:00,27.9,12.6,30.40,SSE,159,8.0,9.0,52,0.00,,---,0.00,VWS V14.01,2013-01-26 18:00:00,
2013-01-26 12:04:00,26.2,11.8,30.42,SW,221,0.0,3.0,54,0.00,,---,0.00,VWS V14.01,2013-01-26 18:04:00,
2013-01-26 12:09:00,26.5,12.5,30.42,South,186,0.0,3.0,55,0.00,,---,0.00,VWS V14.01,2013-01-26 18:09:00,
2013-01-26 12:14:00,26.6,12.2,30.42,SW,236,0.0,3.0,54,0.00,,---,0.00,VWS V14.01,2013-01-26 18:14:00,
2013-01-26 12:19:00,26.8,12.4,30.41,SE,142,1.0,7.0,54,0.00,,---,0.00,VWS V14.01,2013-01-26 18:19:00,
2013-01-26 12:24:00,26.8,12.0,30.41,SE,132,2.0,7.0,53,0.00,,---,0.00,VWS V14.01,2013-01-26 18:24:00,
2013-01-26 12:29:00,27.0,12.2,30.41,SSE,157,1.0,3.0,53,0.00,,---,0.00,VWS V14.01,2013-01-26 18:29:00,
2013-01-26 12:30:00,29.1,12.8,30.39,SE,140,0.0,8.0,50,0.00,,---,0.00,VWS V14.01,2013-01-26 18:30:00,
2013-01-26 12:34:00,27.2,11.9,30.40,ESE,104,4.0,5.0,52,0.00,,---,0.00,VWS V14.01,2013-01-26 18:34:00,
2013-01-26 12:39:00,27.4,11.7,30.40,ESE,112,4.0,7.0,51,0.00,,---,0.00,VWS V14.01,2013-01-26 18:39:00,
2013-01-26 12:44:00,27.2,12.4,30.40,SE,134,7.0,8.0,53,0.00,,---,0.00,VWS V14.01,2013-01-26 18:44:00,
2013-01-26 12:49:00,27.4,12.5,30.40,SE,139,6.0,9.0,53,0.00,,---,0.00,VWS V14.01,2013-01-26 18:49:00,
2013-01-26 12:54:00,27.6,12.3,30.40,SE,142,0.0,9.0,52,0.00,,---,0.00,VWS V14.01,2013-01-26 18:54:00,
2013-01-26 12:59:00,28.0,12.7,30.40,SSE,155,3.0,8.0,52,0.00,,---,0.00,VWS V14.01,2013-01-26 18:59:00,
2013-01-26 13:00:00,29.8,13.0,30.39,ESE,115,0.0,7.0,49,0.00,,---,0.00,VWS V14.01,2013-01-26 19:00:00,
2013-01-26 13:04:00,28.3,12.5,30.39,SE,126,1.0,8.0,51,0.00,,---,0.00,VWS V14.01,2013-01-26 19:04:00,
2013-01-26 13:09:00,28.4,12.6,30.39,SE,144,3.0,8.0,51,0.00,,---,0.00,VWS V14.01,2013-01-26 19:09:00,
2013-01-26 13:14:00,28.7,12.9,30.39,ENE,68,2.0,8.0,51,0.00,,---,0.00,VWS V14.01,2013-01-26 19:14:00,
2013-01-26 13:19:00,28.8,12.5,30.39,SE,141,0.0,8.0,50,0.00,,---,0.00,VWS V14.01,2013-01-26 19:19:00,
2013-01-26 13:24:00,28.9,12.1,30.39,SE,140,3.0,8.0,49,0.00,,---,0.00,VWS V14.01,2013-01-26 19:24:00,
2013-01-26 13:29:00,29.2,12.4,30.40,SE,140,0.0,0.0,49,0.00,,---,0.00,VWS V14.01,2013-01-26 19:29:00,
2013-01-26 13:30:00,30.9,13.5,30.38,SSW,213,0.0,7.0,48,0.00,,---,0.00,VWS V14.01,2013-01-26 19:30:00,
2013-01-26 13:34:00,29.7,12.9,30.40,SE,144,0.0,0.0,49,0.00,,---,0.00,VWS V14.01,2013-01-26 19:34:00,
2013-01-26 13:39:00,30.2,12.9,30.39,SE,142,0.0,1.0,48,0.00,,---,0.00,VWS V14.01,2013-01-26 19:39:00,
2013-01-26 13:44:00,30.2,12.9,30.39,SE,140,2.0,6.0,48,0.00,,---,0.00,VWS V14.01,2013-01-26 19:44:00,
2013-01-26 13:50:00,29.9,13.1,30.39,SE,144,0.0,6.0,49,0.00,,---,0.00,VWS V14.01,2013-01-26 19:50:00,
2013-01-26 13:55:00,29.8,13.0,30.39,ESE,120,1.0,6.0,49,0.00,,---,0.00,VWS V14.01,2013-01-26 19:55:00,
2013-01-26 14:00:00,29.7,12.4,30.39,ESE,115,0.0,0.0,48,0.00,,---,0.00,VWS V14.01,2013-01-26 20:00:00,
2013-01-26 14:05:00,30.1,13.7,30.39,SSE,157,3.0,5.0,50,0.00,,---,0.00,VWS V14.01,2013-01-26 20:05:00,
2013-01-26 14:10:00,30.3,13.4,30.39,SW,223,0.0,5.0,49,0.00,,---,0.00,VWS V14.01,2013-01-26 20:10:00,
2013-01-26 14:15:00,30.7,13.8,30.38,SSW,194,0.0,5.0,49,0.00,,---,0.00,VWS V14.01,2013-01-26 20:15:00,
2013-01-26 14:20:00,30.9,13.5,30.38,SSE,147,5.0,7.0,48,0.00,,---,0.00,VWS V14.01,2013-01-26 20:20:00,
2013-01-26 14:25:00,30.8,13.4,30.38,SE,135,0.0,7.0,48,0.00,,---,0.00,VWS V14.01,2013-01-26 20:25:00,
2013-01-26 14:30:00,31.0,13.6,30.38,SSW,192,2.0,7.0,48,0.00,,---,0.00,VWS V14.01,2013-01-26 20:30:00,
2013-01-26 14:35:00,31.1,13.2,30.39,South,176,1.0,7.0,47,0.00,,---,0.00,VWS V14.01,2013-01-26 20:35:00,
2013-01-26 14:40:00,31.3,13.4,30.39,SE,136,3.0,7.0,47,0.00,,---,0.00,VWS V14.01,2013-01-26 20:40:00,
2013-01-26 14:45:00,31.0,12.7,30.38,SE,146,0.0,7.0,46,0.00,,---,0.00,VWS V14.01,2013-01-26 20:45:00,
2013-01-26 14:50:00,30.8,13.0,30.38,SE,140,1.0,7.0,47,0.00,,---,0.00,VWS V14.01,2013-01-26 20:50:00,
2013-01-26 14:56:00,30.8,13.4,30.38,SSE,148,3.0,7.0,48,0.00,,---,0.00,VWS V14.01,2013-01-26 20:56:00,
2013-01-26 15:00:00,31.0,13.6,30.38,SSE,147,3.0,7.0,48,0.00,,---,0.00,VWS V14.01,2013-01-26 21:00:00,
2013-01-26 15:01:00,30.9,13.1,30.37,ESE,117,5.0,7.0,47,0.00,,---,0.00,VWS V14.01,2013-01-26 21:01:00,
2013-01-26 15:06:00,30.8,13.4,30.38,SSE,161,1.0,7.0,48,0.00,,---,0.00,VWS V14.01,2013-01-26 21:06:00,
2013-01-26 15:11:00,30.9,13.1,30.37,SE,124,3.0,7.0,47,0.00,,---,0.00,VWS V14.01,2013-01-26 21:11:00,
2013-01-26 15:16:00,30.7,13.4,30.37,ESE,112,5.0,7.0,48,0.00,,---,0.00,VWS V14.01,2013-01-26 21:16:00,
2013-01-26 15:21:00,31.0,13.6,30.37,SE,126,4.0,7.0,48,0.00,,---,0.00,VWS V14.01,2013-01-26 21:21:00,
2013-01-26 15:26:00,31.1,13.7,30.37,SE,138,2.0,7.0,48,0.00,,---,0.00,VWS V14.01,2013-01-26 21:26:00,
2013-01-26 15:30:00,30.2,13.8,30.39,SSE,148,3.0,6.0,50,0.00,,---,0.00,VWS V14.01,2013-01-26 21:30:00,
2013-01-26 15:31:00,31.1,13.7,30.38,SSE,159,1.0,4.0,48,0.00,,---,0.00,VWS V14.01,2013-01-26 21:31:00,
2013-01-26 15:36:00,31.2,13.3,30.37,SE,130,5.0,7.0,47,0.00,,---,0.00,VWS V14.01,2013-01-26 21:36:00,
2013-01-26 15:41:00,31.0,13.6,30.37,SSE,153,3.0,7.0,48,0.00,,---,0.00,VWS V14.01,2013-01-26 21:41:00,
2013-01-26 15:46:00,31.1,13.7,30.37,SE,142,6.0,7.0,48,0.00,,---,0.00,VWS V14.01,2013-01-26 21:46:00,
2013-01-26 15:51:00,31.1,14.2,30.37,SSE,155,3.0,7.0,49,0.00,,---,0.00,VWS V14.01,2013-01-26 21:51:00,
2013-01-26 15:57:00,31.0,13.6,30.38,SE,145,5.0,7.0,48,0.00,,---,0.00,VWS V14.01,2013-01-26 21:57:00,
2013-01-26 16:00:00,29.0,14.9,30.37,SE,132,5.0,7.0,55,0.00,,---,0.00,VWS V14.01,2013-01-26 22:00:00,
2013-01-26 16:02:00,30.9,13.5,30.38,South,171,1.0,4.0,48,0.00,,---,0.00,VWS V14.01,2013-01-26 22:02:00,
2013-01-26 16:07:00,30.9,13.5,30.38,South,186,4.0,5.0,48,0.00,,---,0.00,VWS V14.01,2013-01-26 22:07:00,
2013-01-26 16:12:00,30.6,13.7,30.38,South,182,1.0,6.0,49,0.00,,---,0.00,VWS V14.01,2013-01-26 22:12:00,
2013-01-26 16:17:00,30.5,13.6,30.38,South,178,4.0,6.0,49,0.00,,---,0.00,VWS V14.01,2013-01-26 22:17:00,
2013-01-26 16:22:00,30.4,14.0,30.38,SSE,147,5.0,6.0,50,0.00,,---,0.00,VWS V14.01,2013-01-26 22:22:00,
2013-01-26 16:27:00,30.2,14.3,30.38,SSE,148,2.0,6.0,51,0.00,,---,0.00,VWS V14.01,2013-01-26 22:27:00,
2013-01-26 16:30:00,28.4,14.3,30.36,SE,135,7.0,7.0,55,0.00,,---,0.00,VWS V14.01,2013-01-26 22:30:00,
2013-01-26 16:32:00,30.0,13.6,30.39,SSE,147,3.0,5.0,50,0.00,,---,0.00,VWS V14.01,2013-01-26 22:32:00,
2013-01-26 16:37:00,29.8,13.4,30.38,SSE,147,4.0,5.0,50,0.00,,---,0.00,VWS V14.01,2013-01-26 22:37:00,
2013-01-26 16:42:00,29.7,14.7,30.38,SE,138,4.0,5.0,53,0.00,,---,0.00,VWS V14.01,2013-01-26 22:42:00,
2013-01-26 16:47:00,29.4,14.4,30.38,SE,132,5.0,6.0,53,0.00,,---,0.00,VWS V14.01,2013-01-26 22:47:00,
2013-01-26 16:52:00,29.3,14.7,30.38,SE,132,4.0,6.0,54,0.00,,---,0.00,VWS V14.01,2013-01-26 22:52:00,
2013-01-26 16:57:00,29.0,14.9,30.37,SE,132,4.0,6.0,55,0.00,,---,0.00,VWS V14.01,2013-01-26 22:57:00,
2013-01-26 17:00:00,27.7,14.1,30.36,SE,131,2.0,8.0,56,0.00,,---,0.00,VWS V14.01,2013-01-26 23:00:00,
2013-01-26 17:02:00,28.8,14.7,30.37,SE,128,4.0,6.0,55,0.00,,---,0.00,VWS V14.01,2013-01-26 23:02:00,
2013-01-26 17:07:00,28.6,14.5,30.37,SE,132,3.0,6.0,55,0.00,,---,0.00,VWS V14.01,2013-01-26 23:07:00,
2013-01-26 17:12:00,28.5,14.0,30.37,ESE,115,3.0,6.0,54,0.00,,---,0.00,VWS V14.01,2013-01-26 23:12:00,
2013-01-26 17:17:00,28.6,13.6,30.37,ESE,115,2.0,6.0,53,0.00,,---,0.00,VWS V14.01,2013-01-26 23:17:00,
2013-01-26 17:22:00,28.7,14.2,30.37,ESE,116,4.0,7.0,54,0.00,,---,0.00,VWS V14.01,2013-01-26 23:22:00,
2013-01-26 17:28:00,28.5,14.4,30.36,SE,134,6.0,7.0,55,0.00,,---,0.00,VWS V14.01,2013-01-26 23:28:00,
2013-01-26 17:30:00,27.2,14.0,30.37,SE,136,0.0,3.0,57,0.00,,---,0.00,VWS V14.01,2013-01-26 23:30:00,
2013-01-26 17:33:00,28.1,14.4,30.36,SE,131,6.0,8.0,56,0.00,,---,0.00,VWS V14.01,2013-01-26 23:33:00,
2013-01-26 17:38:00,28.0,13.9,30.36,SE,125,5.0,8.0,55,0.00,,---,0.00,VWS V14.01,2013-01-26 23:38:00,
2013-01-26 17:43:00,28.1,13.6,30.35,SE,130,6.0,8.0,54,0.00,,---,0.00,VWS V14.01,2013-01-26 23:43:00,
2013-01-26 17:48:00,28.1,14.0,30.36,SE,134,4.0,8.0,55,0.00,,---,0.00,VWS V14.01,2013-01-26 23:48:00,
2013-01-26 17:53:00,28.0,13.9,30.36,SE,131,4.0,8.0,55,0.00,,---,0.00,VWS V14.01,2013-01-26 23:53:00,
2013-01-26 17:58:00,27.7,14.1,30.36,SE,131,1.0,8.0,56,0.00,,---,0.00,VWS V14.01,2013-01-26 23:58:00,
2013-01-26 18:00:00,27.2,14.8,30.38,SE,136,1.0,2.0,59,0.00,,---,0.00,VWS V14.01,2013-01-27 00:00:00,
2013-01-26 18:03:00,27.5,14.3,30.37,SE,136,1.0,3.0,57,0.00,,---,0.00,VWS V14.01,2013-01-27 00:03:00,
2013-01-26 18:08:00,27.5,13.9,30.37,SE,136,0.0,3.0,56,0.00,,---,0.00,VWS V14.01,2013-01-27 00:08:00,
2013-01-26 18:13:00,27.5,13.9,30.37,SE,136,0.0,3.0,56,0.00,,---,0.00,VWS V14.01,2013-01-27 00:13:00,
2013-01-26 18:18:00,27.5,14.7,30.37,SE,136,0.0,3.0,58,0.00,,---,0.00,VWS V14.01,2013-01-27 00:18:00,
2013-01-26 18:23:00,27.4,15.0,30.36,SE,136,0.0,3.0,59,0.00,,---,0.00,VWS V14.01,2013-01-27 00:23:00,
2013-01-26 18:28:00,27.2,14.0,30.37,SE,136,0.0,0.0,57,0.00,,---,0.00,VWS V14.01,2013-01-27 00:28:00,
2013-01-26 18:30:00,26.9,14.5,30.39,SE,132,2.0,3.0,59,0.00,,---,0.00,VWS V14.01,2013-01-27 00:30:00,
2013-01-26 18:34:00,27.2,14.4,30.37,SE,136,1.0,1.0,58,0.00,,---,0.00,VWS V14.01,2013-01-27 00:34:00,
2013-01-26 18:39:00,27.2,14.0,30.37,SE,136,0.0,2.0,57,0.00,,---,0.00,VWS V14.01,2013-01-27 00:39:00,
2013-01-26 18:44:00,27.2,14.0,30.38,SE,136,0.0,2.0,57,0.00,,---,0.00,VWS V14.01,2013-01-27 00:44:00,
2013-01-26 18:49:00,27.2,14.0,30.38,SE,136,0.0,2.0,57,0.00,,---,0.00,VWS V14.01,2013-01-27 00:49:00,
2013-01-26 18:54:00,27.3,14.5,30.38,SE,136,1.0,2.0,58,0.00,,---,0.00,VWS V14.01,2013-01-27 00:54:00,
2013-01-26 18:59:00,27.2,14.8,30.38,SE,136,2.0,2.0,59,0.00,,---,0.00,VWS V14.01,2013-01-27 00:59:00,
2013-01-26 19:00:00,27.6,15.2,30.38,ESE,118,2.0,5.0,59,0.00,,---,0.00,VWS V14.01,2013-01-27 01:00:00,
2013-01-26 19:04:00,27.1,14.7,30.39,SE,136,2.0,3.0,59,0.00,,---,0.00,VWS V14.01,2013-01-27 01:04:00,
2013-01-26 19:09:00,27.0,14.6,30.39,SE,136,1.0,3.0,59,0.00,,---,0.00,VWS V14.01,2013-01-27 01:09:00,
2013-01-26 19:14:00,27.0,14.2,30.39,SE,135,2.0,3.0,58,0.00,,---,0.00,VWS V14.01,2013-01-27 01:14:00,
2013-01-26 19:19:00,26.9,14.1,30.38,SE,132,2.0,3.0,58,0.00,,---,0.00,VWS V14.01,2013-01-27 01:19:00,
2013-01-26 19:24:00,26.9,14.5,30.39,SE,132,2.0,3.0,59,0.00,,---,0.00,VWS V14.01,2013-01-27 01:24:00,
2013-01-26 19:30:00,26.9,14.5,30.39,SE,132,2.0,2.0,59,0.00,,---,0.00,VWS V14.01,2013-01-27 01:30:00,
2013-01-26 19:35:00,26.9,14.5,30.38,SE,128,3.0,3.0,59,0.00,,---,0.00,VWS V14.01,2013-01-27 01:35:00,
2013-01-26 19:40:00,27.0,14.6,30.38,ESE,115,3.0,4.0,59,0.00,,---,0.00,VWS V14.01,2013-01-27 01:40:00,
2013-01-26 19:45:00,27.1,14.7,30.38,SE,124,4.0,5.0,59,0.00,,---,0.00,VWS V14.01,2013-01-27 01:45:00,
2013-01-26 19:50:00,27.4,15.0,30.38,ESE,119,3.0,5.0,59,0.00,,---,0.00,VWS V14.01,2013-01-27 01:50:00,
2013-01-26 19:55:00,27.5,15.1,30.38,ESE,115,3.0,5.0,59,0.00,,---,0.00,VWS V14.01,2013-01-27 01:55:00,
2013-01-26 20:00:00,27.6,15.2,30.38,ESE,121,4.0,8.0,59,0.00,,---,0.00,VWS V14.01,2013-01-27 02:00:00,
2013-01-26 20:05:00,27.8,15.0,30.38,ESE,123,5.0,8.0,58,0.00,,---,0.00,VWS V14.01,2013-01-27 02:05:00,
2013-01-26 20:10:00,27.9,15.1,30.38,SE,126,5.0,8.0,58,0.00,,---,0.00,VWS V14.01,2013-01-27 02:10:00,
2013-01-26 20:15:00,28.0,15.1,30.38,SE,128,3.0,8.0,58,0.00,,---,0.00,VWS V14.01,2013-01-27 02:15:00,
2013-01-26 20:20:00,28.1,15.2,30.37,ESE,103,5.0,8.0,58,0.00,,---,0.00,VWS V14.01,2013-01-27 02:20:00,
2013-01-26 20:25:00,28.2,15.3,30.37,ESE,119,4.0,8.0,58,0.00,,---,0.00,VWS V14.01,2013-01-27 02:25:00,
2013-01-26 20:30:00,28.2,15.3,30.37,ESE,123,9.0,9.0,58,0.00,,---,0.00,VWS V14.01,2013-01-27 02:30:00,
2013-01-26 20:35:00,28.3,15.4,30.37,SE,130,7.0,9.0,58,0.00,,---,0.00,VWS V14.01,2013-01-27 02:35:00,
2013-01-26 20:40:00,28.3,15.8,30.37,SE,143,5.0,9.0,59,0.00,,---,0.00,VWS V14.01,2013-01-27 02:40:00,
2013-01-26 20:45:00,28.4,15.9,30.37,ESE,118,5.0,9.0,59,0.00,,---,0.00,VWS V14.01,2013-01-27 02:45:00,
2013-01-26 20:50:00,28.3,16.2,30.37,ESE,118,4.0,9.0,60,0.00,,---,0.00,VWS V14.01,2013-01-27 02:50:00,
2013-01-26 20:55:00,28.4,15.9,30.37,ESE,118,4.0,9.0,59,0.00,,---,0.00,VWS V14.01,2013-01-27 02:55:00,
2013-01-26 21:00:00,28.4,16.3,30.37,SE,133,4.0,7.0,60,0.00,,---,0.00,VWS V14.01,2013-01-27 03:00:00,
2013-01-26 21:05:00,28.5,16.4,30.37,SE,130,5.0,8.0,60,0.00,,---,0.00,VWS V14.01,2013-01-27 03:05:00,
2013-01-26 21:11:00,28.5,16.4,30.37,SE,141,4.0,8.0,60,0.00,,---,0.00,VWS V14.01,2013-01-27 03:11:00,
2013-01-26 21:16:00,28.5,16.8,30.37,SE,134,7.0,9.0,61,0.00,,---,0.00,VWS V14.01,2013-01-27 03:16:00,
2013-01-26 21:21:00,28.4,16.7,30.37,SE,128,4.0,9.0,61,0.00,,---,0.00,VWS V14.01,2013-01-27 03:21:00,
2013-01-26 21:26:00,28.4,16.7,30.37,SE,138,6.0,9.0,61,0.00,,---,0.00,VWS V14.01,2013-01-27 03:26:00,
2013-01-26 21:30:00,27.8,17.2,30.38,SE,146,7.0,13.0,64,0.00,,---,0.00,VWS V14.01,2013-01-27 03:30:00,
2013-01-26 21:31:00,28.4,16.7,30.37,SE,130,5.0,8.0,61,0.00,,---,0.00,VWS V14.01,2013-01-27 03:31:00,
2013-01-26 21:36:00,28.3,17.0,30.37,SE,132,5.0,8.0,62,0.00,,---,0.00,VWS V14.01,2013-01-27 03:36:00,
2013-01-26 21:41:00,28.3,17.0,30.37,SSE,148,7.0,9.0,62,0.00,,---,0.00,VWS V14.01,2013-01-27 03:41:00,
2013-01-26 21:46:00,28.5,17.1,30.37,SSE,147,8.0,9.0,62,0.00,,---,0.00,VWS V14.01,2013-01-27 03:46:00,
2013-01-26 21:51:00,28.6,16.9,30.38,SE,137,10.0,12.0,61,0.00,,---,0.00,VWS V14.01,2013-01-27 03:51:00,
2013-01-26 21:56:00,28.7,17.0,30.38,SE,144,11.0,13.0,61,0.00,,---,0.00,VWS V14.01,2013-01-27 03:56:00,
2013-01-26 22:00:00,27.9,17.3,30.38,SE,142,6.0,14.0,64,0.00,,---,0.00,VWS V14.01,2013-01-27 04:00:00,
2013-01-26 22:01:00,28.5,16.8,30.38,SSE,159,9.0,12.0,61,0.00,,---,0.00,VWS V14.01,2013-01-27 04:01:00,
2013-01-26 22:06:00,28.3,17.0,30.38,SE,144,9.0,13.0,62,0.00,,---,0.00,VWS V14.01,2013-01-27 04:06:00,
2013-01-26 22:11:00,28.1,17.1,30.38,SE,146,7.0,13.0,63,0.00,,---,0.00,VWS V14.01,2013-01-27 04:11:00,
2013-01-26 22:16:00,27.9,17.0,30.38,SSE,162,5.0,13.0,63,0.00,,---,0.00,VWS V14.01,2013-01-27 04:16:00,
2013-01-26 22:21:00,27.8,17.2,30.38,SSE,150,6.0,13.0,64,0.00,,---,0.00,VWS V14.01,2013-01-27 04:21:00,
2013-01-26 22:27:00,27.8,17.2,30.38,SE,146,7.0,13.0,64,0.00,,---,0.00,VWS V14.01,2013-01-27 04:27:00,
2013-01-26 22:30:00,28.0,17.8,30.38,SE,137,10.0,14.0,65,0.00,,---,0.00,VWS V14.01,2013-01-27 04:30:00,
2013-01-26 22:32:00,27.8,17.2,30.37,SSE,152,9.0,13.0,64,0.00,,---,0.00,VWS V14.01,2013-01-27 04:32:00,
2013-01-26 22:37:00,27.8,17.2,30.37,SE,141,10.0,13.0,64,0.00,,---,0.00,VWS V14.01,2013-01-27 04:37:00,
2013-01-26 22:42:00,27.8,17.2,30.38,SE,142,11.0,13.0,64,0.00,,---,0.00,VWS V14.01,2013-01-27 04:42:00,
2013-01-26 22:47:00,27.9,17.3,30.38,SE,136,9.0,13.0,64,0.00,,---,0.00,VWS V14.01,2013-01-27 04:47:00,
2013-01-26 22:52:00,27.9,17.3,30.38,SE,135,12.0,13.0,64,0.00,,---,0.00,VWS V14.01,2013-01-27 04:52:00,
2013-01-26 22:57:00,27.9,17.3,30.38,SE,142,12.0,14.0,64,0.00,,---,0.00,VWS V14.01,2013-01-27 04:57:00,
2013-01-26 23:00:00,27.9,17.3,30.38,SE,142,9.0,12.0,64,0.00,,---,0.00,VWS V14.01,2013-01-27 05:00:00,
2013-01-26 23:01:00,27.9,17.3,30.37,SE,132,12.0,13.0,64,0.00,,---,0.00,VWS V14.01,2013-01-27 05:01:00,
2013-01-26 23:03:00,27.9,17.3,30.38,SE,144,11.0,13.0,64,0.00,,---,0.00,VWS V14.01,2013-01-27 05:03:00,
2013-01-26 23:08:00,27.9,17.7,30.38,SSE,152,6.0,13.0,65,0.00,,---,0.00,VWS V14.01,2013-01-27 05:08:00,
2013-01-26 23:13:00,27.9,17.7,30.38,SE,145,7.0,13.0,65,0.00,,---,0.00,VWS V14.01,2013-01-27 05:13:00,
2013-01-26 23:18:00,27.9,17.7,30.38,SE,140,11.0,13.0,65,0.00,,---,0.00,VWS V14.01,2013-01-27 05:18:00,
2013-01-26 23:23:00,27.9,17.7,30.38,SE,138,11.0,13.0,65,0.00,,---,0.00,VWS V14.01,2013-01-27 05:23:00,
2013-01-26 23:28:00,28.0,17.8,30.38,SE,137,10.0,14.0,65,0.00,,---,0.00,VWS V14.01,2013-01-27 05:28:00,
2013-01-26 23:30:00,27.6,18.4,30.38,SSE,154,6.0,14.0,68,0.00,,---,0.00,VWS V14.01,2013-01-27 05:30:00,
2013-01-26 23:33:00,28.0,17.8,30.38,SE,144,8.0,15.0,65,0.00,,---,0.00,VWS V14.01,2013-01-27 05:33:00,
2013-01-26 23:38:00,28.1,17.9,30.38,SE,128,10.0,15.0,65,0.00,,---,0.00,VWS V14.01,2013-01-27 05:38:00,
2013-01-26 23:44:00,28.1,18.2,30.38,SE,145,11.0,15.0,66,0.00,,---,0.00,VWS V14.01,2013-01-27 05:44:00,
2013-01-26 23:49:00,28.1,18.2,30.38,SE,140,9.0,15.0,66,0.00,,---,0.00,VWS V14.01,2013-01-27 05:49:00,
2013-01-26 23:54:00,28.0,18.1,30.38,SSE,148,8.0,15.0,66,0.00,,---,0.00,VWS V14.01,2013-01-27 05:54:00,
2013-01-26 23:59:00,28.0,18.1,30.38,SE,144,11.0,11.0,66,0.00,,---,0.00,VWS V14.01,2013-01-27 05:59:00,